Pagina principale
METAR-TAF:

METAR-TAF

Aeroporti :

Francis S. Gabreski Airport

Westhampton Beach, New York, Stati Uniti

latitudine: 40-51-03N, longitudine: 072-37-14W, altezza: 20 m

Osservazione

Il bollettino è stato emesso 21 minuti fa, alle 07:15 UTC
Vento 3 kt da nord/nord-ovest
Temperature 20°C
Umidità 94%
Pressione 1009 hPa
Visibilità: 1.2 km
foschia

METAR: KFOK 190715Z AUTO 34003KT 3/4SM BR VV001 20/19 A2979 RMK AO2 T02000189

Ora: 03:36 (07:36 UTC)


TAF: mancante

Osservazioni e previsioni meteorologiche di più di 4000 aeroporti (messaggi METAR e TAF).

Le stazioni disponibili sono rappresentate dai dischi gialli e rossi sulla carta.

Puntare il mouse per vedere il nome della stazione.

Clicca sopra per visualizzare le osservazioni e previsioni meteorologiche.

Per cambiare la mappa : fare clic sui pulsanti verdi con una croce nera per ingrandire, il pulsante verde con un trattino per diminuire, o sulla freccia verde per le mappe adiacenti.


METAR-TAF: